Thursday, May 24, 2018, 3:26 PM EDT
Back to Local

K40B, Clayton Lake

Location: Ashland, ME, United States Lat: 46.617
Local Time: 3:26 PM EDT (19:26 GMT) Lon: -69.533
Time Zone: US/Eastern Elev: 1030 ft

Show me the last for .
Show Decoded

2018-05-24 15:16 METAR K40B 241916Z AUTO VRB04G11KT 15/M05 A2998 RMK AO1 SLP158 T01551053 56018 =
2018-05-24 14:16 METAR K40B 241816Z AUTO VRB06G14KT 17/M03 A2998 RMK AO1 SLP161 T01651027 10170
                 20088 57024 =
2018-05-24 13:16 METAR K40B 241716Z AUTO VRB04G13KT 16/M05 A3000 RMK AO1 SLP171 T01571046 58021 =
2018-05-24 12:16 METAR K40B 241616Z AUTO 23008G14KT 110V280 14/M08 A3003 RMK AO1 SLP182 T01401077
                 58013 =
2018-05-24 11:16 METAR K40B 241516Z AUTO VRB03G10KT 14/M05 A3005 RMK AO1 SLP190 T01371051 58006 =
2018-05-24 10:16 METAR K40B 241416Z AUTO VRB05G10KT 13/M02 A3007 RMK AO1 SLP197 T01281024 50003 =
2018-05-24 09:16 METAR K40B 241316Z AUTO VRB03KT 10/M01 A3007 RMK AO1 SLP199 T01031010 51011 =
2018-05-24 08:22 METAR K40B 241222Z AUTO 00000KT 09/01 A3007 RMK AO1 SLP199 T00920009 10091 21011
                 51018 60000 70030 =
2018-05-24 07:16 METAR K40B 241116Z AUTO 00000KT 06/02 A3006 RMK AO1 SLP195 T00580022 52021 P0000
                 =
2018-05-24 06:16 METAR K40B 241016Z AUTO 00000KT 01/01 A3004 RMK AO1 SLP187 T00070008 53012 =
2018-05-24 05:16 METAR K40B 240916Z AUTO 00000KT M01/M01 A3001 RMK AO1 SLP178 T10091007 53006 =
2018-05-24 04:16 METAR K40B 240816Z AUTO 00000KT 00/00 A2999 RMK AO1 SLP170 T10010000 50000 =
2018-05-24 03:16 METAR K40B 240716Z AUTO 00000KT 01/01 A3000 RMK AO1 SLP171 T00110010 52003 =
2018-05-24 02:16 METAR K40B 240616Z AUTO 00000KT 01/01 A3000 RMK AO1 SLP168 T00140013 10068 20011
                 54001 =
2018-05-24 01:16 METAR K40B 240516Z AUTO 00000KT 01/01 A2999 RMK AO1 SLP166 T00120009 401390012
                 54000 =
2018-05-24 00:16 METAR K40B 240416Z AUTO 00000KT 01/01 A2999 RMK AO1 SLP164 T00140010 57003 =
2018-05-23 23:16 METAR K40B 240316Z AUTO 00000KT 02/02 A2999 RMK AO1 SLP164 T00190017 50000 =
2018-05-23 22:16 METAR K40B 240216Z AUTO 00000KT 02/02 A3000 RMK AO1 SLP164 T00220017 51006 =
2018-05-23 21:16 METAR K40B 240116Z AUTO 00000KT 04/02 A3000 RMK AO1 SLP165 T00420016 52013 =
2018-05-23 20:16 METAR K40B 240016Z AUTO 00000KT 07/02 A2999 RMK AO1 SLP161 T00680015 10127 20068
                 52016 =
2018-05-23 19:16 METAR K40B 232316Z AUTO VRB02KT 09/01 A2998 RMK AO1 SLP156 T00920007 52017 =
2018-05-23 18:17 METAR K40B 232217Z AUTO VRB04KT 11/02 A2996 RMK AO1 SLP149 T01070015 52014 =
2018-05-23 17:16 METAR K40B 232116Z AUTO VRB05G17KT 11/00 A2994 RMK AO1 SLP144 T01121003 53009 =
2018-05-23 16:16 METAR K40B 232016Z AUTO 36008G16KT 280V060 12/01 A2992 RMK AO1 SLP136 T01170010
                 51007 =

Support USWX by starting your Amazon purchase here.